Time;durP1;ratioP1;P1;durP2;ratioP2;P2;SDS_P1;SDS_P2;PMS_P1;PMS_P2;Temp;Humidity;BMP_temperature;BMP_pressure;BME280_temperature;BME280_humidity;BME280_pressure;Samples;Min_cycle;Max_cycle;Signal;HPM_P1;HPM_P2
2022/07/07 00:02:23;;;;;;;;;;;16.50;97.20;;;;;;5083978;28;19979;-67
2022/07/07 00:04:49;;;;;;;;;;;16.50;97.30;;;;;;5084144;28;19991;-67
2022/07/07 00:07:16;;;;;;;;;;;16.40;97.30;;;;;;5084292;28;19960;-67
2022/07/07 00:09:44;;;;;;;;;;;16.40;97.40;;;;;;5084170;28;19920;-67
2022/07/07 00:12:11;;;;;;;;;;;16.40;97.60;;;;;;5081414;28;19983;-67
2022/07/07 00:14:37;;;;;;;;;;;16.40;97.60;;;;;;5083981;28;20220;-67
2022/07/07 00:17:04;;;;;;;;;;;16.40;97.70;;;;;;5084203;28;19928;-67
2022/07/07 00:19:31;;;;;;;;;;;16.40;97.80;;;;;;5083087;28;19963;-67
2022/07/07 00:21:57;;;;;;;;;;;16.40;97.60;;;;;;5086516;28;19948;-67
2022/07/07 00:24:24;;;;;;;;;;;16.40;97.40;;;;;;5082701;28;20212;-67
2022/07/07 00:26:52;;;;;;;;;;;16.40;97.20;;;;;;5081885;28;19976;-67
2022/07/07 00:29:19;;;;;;;;;;;16.40;97.20;;;;;;5083547;28;20086;-67
2022/07/07 00:31:45;;;;;;;;;;;16.30;97.20;;;;;;5083819;28;19943;-67
2022/07/07 00:34:12;;;;;;;;;;;16.30;97.30;;;;;;5083037;28;19920;-67
2022/07/07 00:36:41;;;;;;;;;;;16.20;97.40;;;;;;5083324;28;19952;-67
2022/07/07 00:39:08;;;;;;;;;;;16.20;97.60;;;;;;5083105;28;19928;-67
2022/07/07 00:41:34;;;;;;;;;;;16.10;97.70;;;;;;5063927;28;19921;-67
2022/07/07 00:44:03;;;;;;;;;;;16.10;97.70;;;;;;5076817;28;19959;-67
2022/07/07 00:46:36;;;;;;;;;;;16.10;97.80;;;;;;5082484;28;19963;-67
2022/07/07 00:49:03;;;;;;;;;;;16.10;97.90;;;;;;5083466;28;19924;-67
2022/07/07 00:51:30;;;;;;;;;;;16.10;98.00;;;;;;5083530;28;20006;-67
2022/07/07 00:53:56;;;;;;;;;;;16.10;98.10;;;;;;5083226;28;19951;-67
2022/07/07 00:56:23;;;;;;;;;;;16.10;98.10;;;;;;5083236;28;19956;-67
2022/07/07 00:58:50;;;;;;;;;;;16.00;98.10;;;;;;5081352;28;19958;-67
2022/07/07 01:01:18;;;;;;;;;;;16.00;98.10;;;;;;5083345;28;20272;-67
2022/07/07 01:03:44;;;;;;;;;;;16.00;98.20;;;;;;5082745;28;20230;-67
2022/07/07 01:06:11;;;;;;;;;;;16.00;98.20;;;;;;5083065;28;20231;-67
2022/07/07 01:08:38;;;;;;;;;;;16.00;98.30;;;;;;5083314;28;19951;-67
2022/07/07 01:11:05;;;;;;;;;;;16.00;98.40;;;;;;5083479;28;20195;-66
2022/07/07 01:13:31;;;;;;;;;;;16.00;98.50;;;;;;5082236;28;19925;-66
2022/07/07 01:15:58;;;;;;;;;;;16.00;98.50;;;;;;5083177;28;19927;-66
2022/07/07 01:18:26;;;;;;;;;;;16.00;98.50;;;;;;5082284;28;19963;-66
2022/07/07 01:20:52;;;;;;;;;;;16.00;98.40;;;;;;5063001;28;20224;-66
2022/07/07 01:23:20;;;;;;;;;;;16.00;98.50;;;;;;5062616;28;19963;-66
2022/07/07 01:25:47;;;;;;;;;;;16.00;98.60;;;;;;5075065;28;19921;-66
2022/07/07 01:28:14;;;;;;;;;;;16.00;98.70;;;;;;5082498;28;19952;-66
2022/07/07 01:30:40;;;;;;;;;;;16.00;98.80;;;;;;5082733;28;19920;-66
2022/07/07 01:33:07;;;;;;;;;;;16.00;98.70;;;;;;5082468;28;20179;-66
2022/07/07 01:35:34;;;;;;;;;;;16.00;98.80;;;;;;5082661;28;19927;-66
2022/07/07 01:38:00;;;;;;;;;;;16.00;99.10;;;;;;5081221;28;19920;-65
2022/07/07 01:40:28;;;;;;;;;;;16.00;99.10;;;;;;5082165;28;19959;-66
2022/07/07 01:42:55;;;;;;;;;;;16.00;99.10;;;;;;5081974;28;19952;-66
2022/07/07 01:45:22;;;;;;;;;;;16.00;99.00;;;;;;5082403;28;20212;-66
2022/07/07 01:47:48;;;;;;;;;;;16.10;98.90;;;;;;5082102;28;20267;-66
2022/07/07 01:50:15;;;;;;;;;;;16.10;98.80;;;;;;5082414;28;20235;-66
2022/07/07 01:52:42;;;;;;;;;;;16.10;98.90;;;;;;5082182;28;20170;-66
2022/07/07 01:55:09;;;;;;;;;;;16.10;99.00;;;;;;5082869;28;19980;-66
2022/07/07 01:57:37;;;;;;;;;;;16.10;99.10;;;;;;5082382;28;20235;-66
2022/07/07 02:00:04;;;;;;;;;;;16.10;99.20;;;;;;5082497;28;19983;-66
2022/07/07 02:02:31;;;;;;;;;;;16.00;99.10;;;;;;5081856;28;19920;-66
2022/07/07 02:04:57;;;;;;;;;;;16.00;99.10;;;;;;5082512;28;19928;-66
2022/07/07 02:07:24;;;;;;;;;;;16.00;99.20;;;;;;5080580;28;20175;-66
2022/07/07 02:09:51;;;;;;;;;;;16.00;99.70;;;;;;5082475;28;19952;-66
2022/07/07 02:12:18;;;;;;;;;;;16.00;99.90;;;;;;5082861;28;19920;-66
2022/07/07 02:14:46;;;;;;;;;;;15.90;99.90;;;;;;5082491;28;19929;-66
2022/07/07 02:17:13;;;;;;;;;;;15.80;99.90;;;;;;5082398;28;19956;-66
2022/07/07 02:19:40;;;;;;;;;;;15.80;99.90;;;;;;5082303;28;19920;-66
2022/07/07 02:22:07;;;;;;;;;;;15.80;99.90;;;;;;5081766;28;19997;-66
2022/07/07 02:24:33;;;;;;;;;;;15.80;99.90;;;;;;5082438;28;19927;-66
2022/07/07 02:27:00;;;;;;;;;;;15.70;99.90;;;;;;5082816;28;19952;-66
2022/07/07 02:29:27;;;;;;;;;;;15.70;99.90;;;;;;5084054;28;20227;-66
2022/07/07 02:31:55;;;;;;;;;;;15.60;99.90;;;;;;5085909;28;19944;-66
2022/07/07 02:34:22;;;;;;;;;;;15.60;99.90;;;;;;5085814;28;19920;-66
2022/07/07 02:36:49;;;;;;;;;;;15.50;99.90;;;;;;5086177;28;20263;-66
2022/07/07 02:39:16;;;;;;;;;;;15.50;99.90;;;;;;5085149;28;19956;-66
2022/07/07 02:41:43;;;;;;;;;;;15.50;99.90;;;;;;5085834;28;19963;-66
2022/07/07 02:44:10;;;;;;;;;;;15.60;99.90;;;;;;5085626;28;19955;-66
2022/07/07 02:46:36;;;;;;;;;;;15.60;99.90;;;;;;5086091;28;19983;-66
2022/07/07 02:49:04;;;;;;;;;;;15.60;99.90;;;;;;5085931;28;19920;-66
2022/07/07 02:51:31;;;;;;;;;;;15.50;99.90;;;;;;5086023;28;19984;-66
2022/07/07 02:53:58;;;;;;;;;;;15.50;99.90;;;;;;5085236;28;19952;-65
2022/07/07 02:56:24;;;;;;;;;;;15.50;99.90;;;;;;5085639;28;20200;-66
2022/07/07 02:58:51;;;;;;;;;;;15.50;99.90;;;;;;5085645;28;19921;-66
2022/07/07 03:01:18;;;;;;;;;;;15.50;99.90;;;;;;5085977;28;19943;-66
2022/07/07 03:03:44;;;;;;;;;;;15.40;99.90;;;;;;5085078;28;20120;-66
2022/07/07 03:06:12;;;;;;;;;;;15.40;99.90;;;;;;5085760;28;19920;-66
2022/07/07 03:08:39;;;;;;;;;;;15.30;99.90;;;;;;5085089;28;19921;-66
2022/07/07 03:11:06;;;;;;;;;;;15.30;99.90;;;;;;5085153;28;19921;-66
2022/07/07 03:13:32;;;;;;;;;;;15.30;99.90;;;;;;5084853;28;19928;-66
2022/07/07 03:15:59;;;;;;;;;;;15.20;99.90;;;;;;5085326;28;19940;-66
2022/07/07 03:18:26;;;;;;;;;;;15.20;99.90;;;;;;5085487;28;19972;-66
2022/07/07 03:20:52;;;;;;;;;;;15.20;99.90;;;;;;5085537;28;19952;-67
2022/07/07 03:23:20;;;;;;;;;;;15.20;99.90;;;;;;5084780;28;20188;-66
2022/07/07 03:25:50;;;;;;;;;;;15.20;99.90;;;;;;5085413;28;19971;-66
2022/07/07 03:28:17;;;;;;;;;;;15.20;99.90;;;;;;5084929;28;19927;-66
2022/07/07 03:30:43;;;;;;;;;;;15.20;99.90;;;;;;5085109;28;19921;-66
2022/07/07 03:33:10;;;;;;;;;;;15.30;99.90;;;;;;5084637;28;19927;-66
2022/07/07 03:35:38;;;;;;;;;;;15.30;99.90;;;;;;5084819;28;19926;-66
2022/07/07 03:38:04;;;;;;;;;;;15.30;99.90;;;;;;5084289;28;19921;-66
2022/07/07 03:40:34;;;;;;;;;;;15.30;99.90;;;;;;5082683;28;19920;-66
2022/07/07 03:43:00;;;;;;;;;;;15.30;99.90;;;;;;5084140;28;19921;-66
2022/07/07 03:45:27;;;;;;;;;;;15.30;99.90;;;;;;5084629;28;19988;-66
2022/07/07 03:47:53;;;;;;;;;;;15.30;99.90;;;;;;5084528;28;19955;-66
2022/07/07 03:50:20;;;;;;;;;;;15.30;99.90;;;;;;5084720;28;19921;-66
2022/07/07 03:52:47;;;;;;;;;;;15.30;99.90;;;;;;5084034;28;19952;-66
2022/07/07 03:55:13;;;;;;;;;;;15.30;99.90;;;;;;5084758;28;19920;-66
2022/07/07 03:57:41;;;;;;;;;;;15.30;99.90;;;;;;5084478;28;19920;-66
2022/07/07 04:00:09;;;;;;;;;;;15.30;99.90;;;;;;5084646;28;19952;-66
2022/07/07 04:02:36;;;;;;;;;;;15.30;99.90;;;;;;5084296;28;19951;-66
2022/07/07 04:05:03;;;;;;;;;;;15.20;99.90;;;;;;5083999;28;19921;-66
2022/07/07 04:07:29;;;;;;;;;;;15.20;99.90;;;;;;5083952;28;19956;-66
2022/07/07 04:09:56;;;;;;;;;;;15.20;99.90;;;;;;5084263;28;19928;-66
2022/07/07 04:12:23;;;;;;;;;;;15.20;99.90;;;;;;5083548;28;19955;-66
2022/07/07 04:14:51;;;;;;;;;;;15.20;99.90;;;;;;5084324;28;19921;-66
2022/07/07 04:17:17;;;;;;;;;;;15.20;99.90;;;;;;5083997;28;19956;-66
2022/07/07 04:19:44;;;;;;;;;;;15.20;99.90;;;;;;5083666;28;19958;-66
2022/07/07 04:22:10;;;;;;;;;;;15.20;99.90;;;;;;5083702;28;19956;-66
2022/07/07 04:24:37;;;;;;;;;;;15.20;99.90;;;;;;5084122;28;20035;-66
2022/07/07 04:27:05;;;;;;;;;;;15.20;99.90;;;;;;5083981;28;19983;-66
2022/07/07 04:29:32;;;;;;;;;;;15.20;99.90;;;;;;5084180;28;19995;-66
2022/07/07 04:32:01;;;;;;;;;;;15.20;99.90;;;;;;5083719;28;19966;-66
2022/07/07 04:34:28;;;;;;;;;;;15.30;99.90;;;;;;5083206;28;19936;-66
2022/07/07 04:36:54;;;;;;;;;;;15.30;99.90;;;;;;5084145;28;19947;-66
2022/07/07 04:39:21;;;;;;;;;;;15.30;99.90;;;;;;5082661;28;20174;-66
2022/07/07 04:41:48;;;;;;;;;;;15.30;99.90;;;;;;5083602;28;19958;-66
2022/07/07 04:44:15;;;;;;;;;;;15.30;99.90;;;;;;5083221;28;19952;-66
2022/07/07 04:46:42;;;;;;;;;;;15.30;99.90;;;;;;5083514;28;19952;-66
2022/07/07 04:49:10;;;;;;;;;;;15.30;99.90;;;;;;5083625;28;19920;-66
2022/07/07 04:51:37;;;;;;;;;;;15.40;99.90;;;;;;5083276;28;20207;-66
2022/07/07 04:54:04;;;;;;;;;;;15.40;99.90;;;;;;5083123;28;20231;-66
2022/07/07 04:56:30;;;;;;;;;;;15.40;99.90;;;;;;5083579;28;19935;-66
2022/07/07 04:58:57;;;;;;;;;;;15.40;99.90;;;;;;5083408;28;19920;-66
2022/07/07 05:01:24;;;;;;;;;;;15.50;99.90;;;;;;5078652;28;20148;-66
2022/07/07 05:03:50;;;;;;;;;;;15.50;99.90;;;;;;5083012;28;20115;-66
2022/07/07 05:06:18;;;;;;;;;;;15.50;99.90;;;;;;5083422;28;19921;-66
2022/07/07 05:08:45;;;;;;;;;;;15.50;99.90;;;;;;5083454;28;19970;-66
2022/07/07 05:11:12;;;;;;;;;;;15.60;99.90;;;;;;5083135;28;19920;-66
2022/07/07 05:13:38;;;;;;;;;;;15.60;99.90;;;;;;5082564;28;19959;-66
2022/07/07 05:16:05;;;;;;;;;;;15.70;99.90;;;;;;5087232;28;19960;-66
2022/07/07 05:18:32;;;;;;;;;;;15.70;99.90;;;;;;5083221;28;19943;-66
2022/07/07 05:20:59;;;;;;;;;;;15.70;99.90;;;;;;5074856;28;20220;-66
2022/07/07 05:23:27;;;;;;;;;;;15.70;99.90;;;;;;5062830;28;19921;-66
2022/07/07 05:25:54;;;;;;;;;;;15.70;99.90;;;;;;5075507;28;20004;-66
2022/07/07 05:28:21;;;;;;;;;;;15.80;99.90;;;;;;5069626;28;19921;-66
2022/07/07 05:30:47;;;;;;;;;;;15.80;99.90;;;;;;5082601;28;19958;-66
2022/07/07 05:33:14;;;;;;;;;;;15.90;99.90;;;;;;5082459;28;19958;-66
2022/07/07 05:35:41;;;;;;;;;;;15.90;99.90;;;;;;5083002;28;19959;-66
2022/07/07 05:38:07;;;;;;;;;;;15.90;99.90;;;;;;5082745;28;19928;-66
2022/07/07 05:40:35;;;;;;;;;;;15.90;99.90;;;;;;5081491;28;19983;-66
2022/07/07 05:43:03;;;;;;;;;;;15.90;99.90;;;;;;5082369;28;19979;-66
2022/07/07 05:45:30;;;;;;;;;;;15.90;99.90;;;;;;5079110;28;19920;-66
2022/07/07 05:47:56;;;;;;;;;;;15.90;99.90;;;;;;5082943;28;19988;-66
2022/07/07 05:50:23;;;;;;;;;;;16.00;99.90;;;;;;5073871;28;19943;-67
2022/07/07 05:52:51;;;;;;;;;;;16.00;99.90;;;;;;5074235;28;20000;-66
2022/07/07 05:55:18;;;;;;;;;;;16.00;99.90;;;;;;5082841;28;19920;-66
2022/07/07 05:57:46;;;;;;;;;;;16.00;99.90;;;;;;5082252;28;19920;-66
2022/07/07 06:00:13;;;;;;;;;;;16.00;99.90;;;;;;5077636;28;20353;-66
2022/07/07 06:02:40;;;;;;;;;;;16.00;99.90;;;;;;5082367;28;19996;-68
2022/07/07 06:05:10;;;;;;;;;;;16.10;99.90;;;;;;5093067;28;19962;-66
2022/07/07 06:07:39;;;;;;;;;;;16.10;99.90;;;;;;5086449;28;19920;-66
2022/07/07 06:10:06;;;;;;;;;;;16.10;99.90;;;;;;5087499;28;19921;-66
2022/07/07 06:12:33;;;;;;;;;;;16.00;99.90;;;;;;5078793;28;19920;-66
2022/07/07 06:15:01;;;;;;;;;;;16.00;99.90;;;;;;5101066;28;19956;-66
2022/07/07 06:17:28;;;;;;;;;;;16.00;99.90;;;;;;5067122;28;19921;-66
2022/07/07 06:19:54;;;;;;;;;;;16.00;99.90;;;;;;5076076;28;20015;-66
2022/07/07 06:22:21;;;;;;;;;;;16.00;99.90;;;;;;5085965;28;19928;-66
2022/07/07 06:24:48;;;;;;;;;;;16.00;99.90;;;;;;5086188;28;19948;-66
2022/07/07 06:27:14;;;;;;;;;;;16.10;99.90;;;;;;5086541;28;19951;-67
2022/07/07 06:29:41;;;;;;;;;;;16.10;99.90;;;;;;5100183;28;19920;-66
2022/07/07 06:32:10;;;;;;;;;;;16.10;99.90;;;;;;5086202;28;19928;-67
2022/07/07 06:34:37;;;;;;;;;;;16.20;99.90;;;;;;5085937;28;20034;-67
2022/07/07 06:37:04;;;;;;;;;;;16.30;99.90;;;;;;5084196;28;19928;-67
2022/07/07 06:39:30;;;;;;;;;;;16.40;99.90;;;;;;5088166;28;19928;-67
2022/07/07 06:41:57;;;;;;;;;;;16.50;99.90;;;;;;5085411;28;19958;-66
2022/07/07 06:44:24;;;;;;;;;;;16.60;99.90;;;;;;5086106;28;19927;-66
2022/07/07 06:46:50;;;;;;;;;;;16.80;99.90;;;;;;5085441;28;19955;-66
2022/07/07 06:49:19;;;;;;;;;;;16.90;99.90;;;;;;5085270;28;19981;-66
2022/07/07 06:51:45;;;;;;;;;;;17.00;99.90;;;;;;5066041;28;19984;-66
2022/07/07 06:54:12;;;;;;;;;;;17.10;99.90;;;;;;5065486;28;19963;-66
2022/07/07 06:56:38;;;;;;;;;;;17.20;99.90;;;;;;5066206;28;19920;-65
2022/07/07 06:59:05;;;;;;;;;;;17.30;99.90;;;;;;5067296;28;19921;-65
2022/07/07 07:01:32;;;;;;;;;;;17.40;99.90;;;;;;5086019;28;19956;-65
2022/07/07 07:03:58;;;;;;;;;;;17.40;99.90;;;;;;5084787;28;19951;-66
2022/07/07 07:06:28;;;;;;;;;;;17.50;99.90;;;;;;5086056;28;19963;-66
2022/07/07 07:08:55;;;;;;;;;;;17.60;99.90;;;;;;5086042;28;20144;-66
2022/07/07 07:11:22;;;;;;;;;;;17.60;99.90;;;;;;5085566;28;19955;-65
2022/07/07 07:13:48;;;;;;;;;;;17.60;99.90;;;;;;5085370;28;19920;-65
2022/07/07 07:16:15;;;;;;;;;;;17.70;99.90;;;;;;5084778;28;19920;-65
2022/07/07 07:18:42;;;;;;;;;;;17.80;99.90;;;;;;5067944;28;19925;-66
2022/07/07 07:21:09;;;;;;;;;;;17.80;99.90;;;;;;5085935;28;19963;-66
2022/07/07 07:23:38;;;;;;;;;;;17.90;99.90;;;;;;5085281;28;19988;-66
2022/07/07 07:26:05;;;;;;;;;;;17.90;99.90;;;;;;5085771;28;19927;-66
2022/07/07 07:28:31;;;;;;;;;;;17.90;99.90;;;;;;5085732;28;20183;-65
2022/07/07 07:30:58;;;;;;;;;;;17.90;99.90;;;;;;5080236;28;20112;-65
2022/07/07 07:33:25;;;;;;;;;;;17.80;99.90;;;;;;5087217;28;19928;-65
2022/07/07 07:35:51;;;;;;;;;;;17.80;99.90;;;;;;5085130;28;19920;-66
2022/07/07 07:38:18;;;;;;;;;;;17.70;99.90;;;;;;5084377;28;19962;-66
2022/07/07 07:40:46;;;;;;;;;;;17.70;99.90;;;;;;5065111;28;20247;-65
2022/07/07 07:43:13;;;;;;;;;;;17.60;99.90;;;;;;5084241;28;19959;-66
2022/07/07 07:45:40;;;;;;;;;;;17.60;99.90;;;;;;5084288;28;19963;-65
2022/07/07 07:48:06;;;;;;;;;;;17.60;99.90;;;;;;5084472;28;19947;-66
2022/07/07 07:50:33;;;;;;;;;;;17.50;99.90;;;;;;5084791;28;19995;-66
2022/07/07 07:53:00;;;;;;;;;;;17.50;99.90;;;;;;5084502;28;19927;-66
2022/07/07 07:55:26;;;;;;;;;;;17.50;99.90;;;;;;5084603;28;20179;-65
2022/07/07 07:57:54;;;;;;;;;;;17.50;99.90;;;;;;5084684;28;20195;-66
2022/07/07 08:00:22;;;;;;;;;;;17.50;99.90;;;;;;5081137;28;19928;-66
2022/07/07 08:02:49;;;;;;;;;;;17.50;99.90;;;;;;5086827;28;19920;-66
2022/07/07 08:05:16;;;;;;;;;;;17.50;99.90;;;;;;5084353;28;19921;-66
2022/07/07 08:07:44;;;;;;;;;;;17.40;99.90;;;;;;5082327;28;20111;-66
2022/07/07 08:10:11;;;;;;;;;;;17.30;99.90;;;;;;5088942;28;19987;-66
2022/07/07 08:12:38;;;;;;;;;;;17.20;99.90;;;;;;5093985;28;19921;-66
2022/07/07 08:15:07;;;;;;;;;;;16.90;99.90;;;;;;5084162;28;19920;-66
2022/07/07 08:17:34;;;;;;;;;;;16.70;99.90;;;;;;5087298;28;20089;-65
2022/07/07 08:20:00;;;;;;;;;;;16.60;99.90;;;;;;5083787;28;19920;-67
2022/07/07 08:22:27;;;;;;;;;;;16.50;99.90;;;;;;5083367;28;20262;-66
2022/07/07 08:24:54;;;;;;;;;;;16.40;99.90;;;;;;5083707;28;20207;-66
2022/07/07 08:27:22;;;;;;;;;;;16.30;99.90;;;;;;5083797;28;19920;-66
2022/07/07 08:29:49;;;;;;;;;;;16.30;99.90;;;;;;5083667;28;20374;-67
2022/07/07 08:32:17;;;;;;;;;;;16.30;99.90;;;;;;5083571;28;19955;-66
2022/07/07 08:34:43;;;;;;;;;;;16.30;99.90;;;;;;5083830;28;19942;-66
2022/07/07 08:37:10;;;;;;;;;;;16.20;99.90;;;;;;5083669;28;20198;-66
2022/07/07 08:39:37;;;;;;;;;;;16.20;99.90;;;;;;5083561;28;19962;-66
2022/07/07 08:42:04;;;;;;;;;;;16.20;99.90;;;;;;5083352;28;19963;-66
2022/07/07 08:44:31;;;;;;;;;;;16.10;99.90;;;;;;5083500;28;19951;-66
2022/07/07 08:46:58;;;;;;;;;;;16.00;99.90;;;;;;5084016;28;19986;-66
2022/07/07 08:49:27;;;;;;;;;;;16.00;99.90;;;;;;5083547;28;19966;-65
2022/07/07 08:51:55;;;;;;;;;;;15.90;99.90;;;;;;5077873;28;19959;-66
2022/07/07 08:54:23;;;;;;;;;;;15.80;99.90;;;;;;5082885;28;19921;-66
2022/07/07 08:56:50;;;;;;;;;;;15.60;99.90;;;;;;5083482;28;19920;-66
2022/07/07 08:59:18;;;;;;;;;;;15.50;99.90;;;;;;5083424;28;19920;-66
2022/07/07 09:01:53;;;;;;;;;;;15.50;99.90;;;;;;5083405;28;20250;-66
2022/07/07 09:04:19;;;;;;;;;;;15.40;99.90;;;;;;5083118;28;19983;-66
2022/07/07 09:06:53;;;;;;;;;;;15.30;99.90;;;;;;5083787;28;20175;-66
2022/07/07 09:09:27;;;;;;;;;;;15.40;99.90;;;;;;5083225;28;19928;-66
2022/07/07 09:11:59;;;;;;;;;;;15.30;99.90;;;;;;5079360;28;19920;-66
2022/07/07 09:14:37;;;;;;;;;;;15.40;99.90;;;;;;5080485;28;19927;-66
2022/07/07 09:17:13;;;;;;;;;;;15.50;99.90;;;;;;5083485;28;20287;-66
2022/07/07 09:19:40;;;;;;;;;;;15.70;99.90;;;;;;5082225;28;20176;-68
2022/07/07 09:22:08;;;;;;;;;;;15.80;99.90;;;;;;5082084;28;19920;-68
2022/07/07 09:24:34;;;;;;;;;;;15.90;99.90;;;;;;5068840;28;20177;-68
2022/07/07 09:27:07;;;;;;;;;;;16.10;99.90;;;;;;5073035;28;20201;-68
2022/07/07 09:29:34;;;;;;;;;;;16.10;99.90;;;;;;5082574;28;20097;-67
2022/07/07 09:32:02;;;;;;;;;;;16.20;99.90;;;;;;5082755;28;19966;-68
2022/07/07 09:34:29;;;;;;;;;;;16.30;99.90;;;;;;5082087;28;19928;-67
2022/07/07 09:39:42;;;;;;;;;;;16.40;99.90;;;;;;5081434;28;19923;-68
2022/07/07 09:42:19;;;;;;;;;;;16.50;99.90;;;;;;5082781;28;19959;-67
2022/07/07 09:44:46;;;;;;;;;;;16.60;99.90;;;;;;5075381;28;19920;-67
2022/07/07 09:47:13;;;;;;;;;;;16.70;99.90;;;;;;5091037;28;20179;-67
2022/07/07 09:49:41;;;;;;;;;;;16.90;99.90;;;;;;5082893;28;19920;-67
2022/07/07 09:52:14;;;;;;;;;;;17.10;99.90;;;;;;5067976;28;19967;-68
2022/07/07 09:54:47;;;;;;;;;;;17.30;99.90;;;;;;5075895;28;19987;-67
2022/07/07 09:57:14;;;;;;;;;;;17.40;99.90;;;;;;5083202;28;19987;-67
2022/07/07 09:59:41;;;;;;;;;;;17.50;99.90;;;;;;5083009;28;19921;-67
2022/07/07 10:02:11;;;;;;;;;;;17.60;99.90;;;;;;5082882;28;19921;-67
2022/07/07 10:04:38;;;;;;;;;;;17.70;99.90;;;;;;5088905;28;19920;-67
2022/07/07 10:07:05;;;;;;;;;;;17.70;99.90;;;;;;5083043;28;19952;-67
2022/07/07 10:09:32;;;;;;;;;;;17.80;99.90;;;;;;5082977;28;19967;-67
2022/07/07 10:12:00;;;;;;;;;;;17.90;99.90;;;;;;5082847;28;19928;-67
2022/07/07 10:14:31;;;;;;;;;;;18.10;99.90;;;;;;5059696;28;19927;-67
2022/07/07 10:16:58;;;;;;;;;;;18.30;99.90;;;;;;5062877;28;19992;-69
2022/07/07 10:19:25;;;;;;;;;;;18.40;99.90;;;;;;5078057;28;19955;-67
2022/07/07 10:21:53;;;;;;;;;;;18.50;99.90;;;;;;5083216;28;20000;-67
2022/07/07 10:24:21;;;;;;;;;;;18.60;99.90;;;;;;5079827;28;19921;-67
2022/07/07 10:26:49;;;;;;;;;;;18.60;99.90;;;;;;5077878;28;19921;-67
2022/07/07 10:29:17;;;;;;;;;;;18.60;99.90;;;;;;5082868;28;19925;-67
2022/07/07 10:31:51;;;;;;;;;;;18.50;99.90;;;;;;5083033;28;19996;-67
2022/07/07 10:34:18;;;;;;;;;;;18.50;99.90;;;;;;5082212;28;19920;-67
2022/07/07 10:37:08;;;;;;;;;;;18.40;99.90;;;;;;5082932;28;19985;-67
2022/07/07 10:39:38;;;;;;;;;;;18.50;99.90;;;;;;5067273;28;20187;-67
2022/07/07 10:42:10;;;;;;;;;;;18.50;99.90;;;;;;5063118;28;19921;-67
2022/07/07 10:44:39;;;;;;;;;;;18.60;99.90;;;;;;5062723;28;19921;-67
2022/07/07 10:47:25;;;;;;;;;;;18.50;99.90;;;;;;5072709;28;19921;-67
2022/07/07 10:49:54;;;;;;;;;;;18.50;99.90;;;;;;5068284;28;19921;-67
2022/07/07 10:52:22;;;;;;;;;;;18.50;99.90;;;;;;5065958;28;19958;-67
2022/07/07 10:54:49;;;;;;;;;;;18.50;99.90;;;;;;5081878;28;19951;-67
2022/07/07 10:57:17;;;;;;;;;;;18.50;99.90;;;;;;5066488;28;19979;-69
2022/07/07 11:00:06;;;;;;;;;;;18.50;99.90;;;;;;5082816;28;19971;-68
2022/07/07 11:02:34;;;;;;;;;;;18.80;99.90;;;;;;5083215;28;19928;-67
2022/07/07 11:05:03;;;;;;;;;;;19.00;99.90;;;;;;5085944;28;19959;-68
2022/07/07 11:07:29;;;;;;;;;;;19.00;99.90;;;;;;5085972;28;19988;-68
2022/07/07 11:09:57;;;;;;;;;;;18.90;99.90;;;;;;5085672;28;20038;-68
2022/07/07 11:12:34;;;;;;;;;;;18.90;99.90;;;;;;5085365;28;19921;-68
2022/07/07 11:15:15;;;;;;;;;;;18.70;99.90;;;;;;5085556;28;20208;-69
2022/07/07 11:17:42;;;;;;;;;;;18.60;99.90;;;;;;5084953;28;19954;-68
2022/07/07 11:20:10;;;;;;;;;;;18.60;99.90;;;;;;5085564;28;19982;-67
2022/07/07 11:22:42;;;;;;;;;;;18.60;99.90;;;;;;5084998;28;19921;-68
2022/07/07 11:25:09;;;;;;;;;;;18.70;99.90;;;;;;5081318;28;19983;-68
2022/07/07 11:27:37;;;;;;;;;;;18.70;99.90;;;;;;5085460;28;19960;-68
2022/07/07 11:30:04;;;;;;;;;;;18.80;99.90;;;;;;5085565;28;19963;-69
2022/07/07 11:32:35;;;;;;;;;;;18.90;99.90;;;;;;5084676;28;19954;-68
2022/07/07 11:35:05;;;;;;;;;;;18.90;99.90;;;;;;5085056;28;19927;-68
2022/07/07 11:37:37;;;;;;;;;;;19.00;99.90;;;;;;5085599;28;19932;-68
2022/07/07 11:40:06;;;;;;;;;;;19.00;99.90;;;;;;5084993;28;19927;-70
2022/07/07 11:42:34;;;;;;;;;;;19.10;99.90;;;;;;5084205;28;19921;-69
2022/07/07 11:45:01;;;;;;;;;;;19.10;99.90;;;;;;5084922;28;20216;-68
2022/07/07 11:47:32;;;;;;;;;;;19.10;99.90;;;;;;5085547;28;19975;-68
2022/07/07 11:49:59;;;;;;;;;;;19.10;99.90;;;;;;5084715;28;19928;-68
2022/07/07 11:52:26;;;;;;;;;;;19.20;99.90;;;;;;5079565;28;20215;-69
2022/07/07 11:54:54;;;;;;;;;;;19.10;99.90;;;;;;5083032;28;19928;-68
2022/07/07 11:57:30;;;;;;;;;;;19.00;99.90;;;;;;5085075;28;20101;-68
2022/07/07 12:00:08;;;;;;;;;;;19.10;99.90;;;;;;5084641;28;19968;-68
2022/07/07 12:02:35;;;;;;;;;;;19.10;99.90;;;;;;5083136;28;19967;-68
2022/07/07 12:05:02;;;;;;;;;;;19.10;99.90;;;;;;5064645;28;20231;-68
2022/07/07 12:07:29;;;;;;;;;;;19.10;99.90;;;;;;5065112;28;20175;-68
2022/07/07 12:09:57;;;;;;;;;;;19.10;99.90;;;;;;5070005;28;19920;-68
2022/07/07 12:12:23;;;;;;;;;;;19.10;99.90;;;;;;5083774;28;19959;-68
2022/07/07 12:14:50;;;;;;;;;;;19.20;99.90;;;;;;5084230;28;20555;-68
2022/07/07 12:17:32;;;;;;;;;;;19.10;99.90;;;;;;5084885;28;19959;-68
2022/07/07 12:20:00;;;;;;;;;;;18.90;99.90;;;;;;5084169;28;20328;-68
2022/07/07 12:22:34;;;;;;;;;;;18.70;99.90;;;;;;5084299;28;19920;-68
2022/07/07 12:25:02;;;;;;;;;;;18.60;99.90;;;;;;5079431;28;19935;-68
2022/07/07 12:27:29;;;;;;;;;;;18.50;99.90;;;;;;5078774;28;20002;-68
2022/07/07 12:29:59;;;;;;;;;;;18.40;99.90;;;;;;5084447;28;19977;-68
2022/07/07 12:32:26;;;;;;;;;;;18.40;99.90;;;;;;5083876;28;19929;-68
2022/07/07 12:34:57;;;;;;;;;;;18.30;99.90;;;;;;5083911;28;19952;-68
2022/07/07 12:37:38;;;;;;;;;;;18.30;99.90;;;;;;5083314;28;20365;-67
2022/07/07 12:40:10;;;;;;;;;;;18.10;99.90;;;;;;5083770;28;20038;-68
2022/07/07 12:42:36;;;;;;;;;;;18.00;99.90;;;;;;5083331;28;19921;-68
2022/07/07 12:45:09;;;;;;;;;;;17.80;99.90;;;;;;5082573;28;19927;-68
2022/07/07 12:47:36;;;;;;;;;;;17.80;99.90;;;;;;5083798;28;20204;-68
2022/07/07 12:50:02;;;;;;;;;;;17.70;99.90;;;;;;5083947;28;20005;-68
2022/07/07 12:52:29;;;;;;;;;;;17.70;99.90;;;;;;5083296;28;19958;-69
2022/07/07 12:55:07;;;;;;;;;;;17.70;99.90;;;;;;5083666;28;19920;-68
2022/07/07 12:57:36;;;;;;;;;;;17.70;99.90;;;;;;5084160;28;20108;-68
2022/07/07 13:00:04;;;;;;;;;;;17.70;99.90;;;;;;5083630;28;19950;-68
2022/07/07 13:11:42;;;;;;;;;;;17.60;99.90;;;;;;5082569;28;20111;-67
2022/07/07 13:14:09;;;;;;;;;;;17.60;99.90;;;;;;5082170;28;19921;-66
2022/07/07 13:16:35;;;;;;;;;;;17.50;99.90;;;;;;5084689;28;19928;-67
2022/07/07 13:19:03;;;;;;;;;;;17.50;99.90;;;;;;5075539;28;19920;-68
2022/07/07 13:21:29;;;;;;;;;;;17.40;99.90;;;;;;5083430;28;19978;-66
2022/07/07 13:23:56;;;;;;;;;;;17.50;99.90;;;;;;5082956;28;19920;-67
2022/07/07 13:26:22;;;;;;;;;;;17.40;99.90;;;;;;5083252;28;19956;-66
2022/07/07 13:28:50;;;;;;;;;;;17.50;99.90;;;;;;5083177;28;19920;-66
2022/07/07 13:31:17;;;;;;;;;;;17.50;99.90;;;;;;5083163;28;19960;-67
2022/07/07 13:33:44;;;;;;;;;;;17.60;99.90;;;;;;5082248;28;19967;-66
2022/07/07 13:36:11;;;;;;;;;;;17.60;99.90;;;;;;5082937;28;20211;-66
2022/07/07 13:38:38;;;;;;;;;;;17.70;99.90;;;;;;5083423;28;19921;-66
2022/07/07 13:41:05;;;;;;;;;;;17.70;99.90;;;;;;5083106;28;19921;-67
2022/07/07 13:43:32;;;;;;;;;;;17.60;99.90;;;;;;5082488;28;19956;-67
2022/07/07 13:46:00;;;;;;;;;;;17.70;99.90;;;;;;5064891;28;19962;-67
2022/07/07 13:48:26;;;;;;;;;;;18.00;99.90;;;;;;5083141;28;19963;-66
2022/07/07 13:50:53;;;;;;;;;;;18.30;99.90;;;;;;5081991;28;19920;-67
2022/07/07 13:53:20;;;;;;;;;;;18.50;99.90;;;;;;5082503;28;19921;-67
2022/07/07 13:55:47;;;;;;;;;;;18.60;99.90;;;;;;5082989;28;19958;-69
2022/07/07 13:58:14;;;;;;;;;;;18.70;99.90;;;;;;5083400;28;19956;-66
2022/07/07 14:00:41;;;;;;;;;;;18.60;99.90;;;;;;5099287;28;20243;-65
2022/07/07 14:03:09;;;;;;;;;;;18.60;99.90;;;;;;5095129;28;19948;-67
2022/07/07 14:05:35;;;;;;;;;;;18.60;99.90;;;;;;5076555;28;19931;-68
2022/07/07 14:08:08;;;;;;;;;;;18.70;99.90;;;;;;5080767;28;19991;-68
2022/07/07 14:10:34;;;;;;;;;;;18.60;99.90;;;;;;5082859;28;19995;-68
2022/07/07 14:13:01;;;;;;;;;;;18.60;99.90;;;;;;5082756;28;20000;-68
2022/07/07 14:15:29;;;;;;;;;;;18.60;99.90;;;;;;5082839;28;19927;-68
2022/07/07 14:17:55;;;;;;;;;;;18.60;99.90;;;;;;5082596;28;20207;-68
2022/07/07 14:20:24;;;;;;;;;;;18.60;99.90;;;;;;5082535;28;19927;-68
2022/07/07 14:22:50;;;;;;;;;;;18.50;99.90;;;;;;5082299;28;19966;-69
2022/07/07 14:25:17;;;;;;;;;;;18.60;99.90;;;;;;5084700;28;19967;-68
2022/07/07 14:27:44;;;;;;;;;;;18.60;99.90;;;;;;5080653;28;19920;-68
2022/07/07 14:30:11;;;;;;;;;;;18.50;99.90;;;;;;5086177;28;19979;-69
2022/07/07 14:32:38;;;;;;;;;;;18.50;99.90;;;;;;5068534;28;19920;-68